Time;durP1;ratioP1;P1;durP2;ratioP2;P2;SDS_P1;SDS_P2;PMS_P1;PMS_P2;Temp;Humidity;BMP_temperature;BMP_pressure;BME280_temperature;BME280_humidity;BME280_pressure;Samples;Min_cycle;Max_cycle;Signal;HPM_P1;HPM_P2
2021/07/05 00:02:20;;;;;;;4.87;2.02;;;;;;;21.25;98.17;99707.16;1726822;80;21035;-50
2021/07/05 00:04:47;;;;;;;3.42;1.80;;;;;;;21.20;98.37;99708.85;1723431;81;21579;-45
2021/07/05 00:07:15;;;;;;;2.65;1.52;;;;;;;21.17;98.52;99708.21;1712179;82;21522;-50
2021/07/05 00:09:41;;;;;;;2.92;1.45;;;;;;;21.14;98.68;99703.37;1721977;82;21650;-44
2021/07/05 00:12:10;;;;;;;2.55;1.77;;;;;;;21.10;98.91;99708.08;1721661;82;21075;-44
2021/07/05 00:14:36;;;;;;;2.35;1.60;;;;;;;21.05;99.05;99716.91;1715668;82;21052;-44
2021/07/05 00:17:04;;;;;;;1.90;1.60;;;;;;;21.01;99.27;99717.42;1685280;83;21431;-45
2021/07/05 00:19:32;;;;;;;2.47;1.70;;;;;;;20.97;99.52;99717.96;1742845;82;21570;-49
2021/07/05 00:22:00;;;;;;;2.95;1.98;;;;;;;20.94;99.70;99725.61;1699522;83;21536;-49
2021/07/05 00:24:28;;;;;;;1.20;1.10;;;;;;;20.88;99.93;99720.16;1746418;80;21004;-43
2021/07/05 00:26:56;;;;;;;2.80;1.85;;;;;;;20.85;100.00;99726.45;1724119;82;21066;-50
2021/07/05 00:29:25;;;;;;;2.67;2.00;;;;;;;20.81;100.00;99720.01;1724715;82;21103;-49
2021/07/05 00:31:53;;;;;;;4.80;2.70;;;;;;;20.78;100.00;99711.83;1724335;82;21004;-50
2021/07/05 00:34:19;;;;;;;3.55;2.47;;;;;;;20.74;100.00;99715.70;1724612;82;20996;-44
2021/07/05 00:36:47;;;;;;;1.20;1.10;;;;;;;20.71;100.00;99712.27;1724117;82;20988;-50
2021/07/05 00:39:15;;;;;;;2.62;1.98;;;;;;;20.70;100.00;99706.52;1724345;82;21413;-44
2021/07/05 00:41:43;;;;;;;2.55;2.20;;;;;;;20.69;100.00;99709.84;1724253;82;21020;-44
2021/07/05 00:44:09;;;;;;;3.95;2.40;;;;;;;20.67;100.00;99703.85;1724621;82;21048;-43
2021/07/05 00:46:36;;;;;;;2.35;1.77;;;;;;;20.67;100.00;99710.00;1724002;82;21015;-49
2021/07/05 00:49:02;;;;;;;4.28;1.87;;;;;;;20.66;100.00;99709.80;1724476;83;21027;-45
2021/07/05 00:51:29;;;;;;;4.78;1.70;;;;;;;20.63;100.00;99720.24;1724213;82;21037;-50
2021/07/05 00:53:55;;;;;;;5.87;1.82;;;;;;;20.59;100.00;99710.44;1724680;83;21165;-44
2021/07/05 00:56:21;;;;;;;2.85;1.90;;;;;;;20.54;100.00;99717.05;1724272;83;21005;-44
2021/07/05 00:58:48;;;;;;;2.85;1.52;;;;;;;20.54;100.00;99716.25;1691596;83;21004;-48
2021/07/05 01:01:16;;;;;;;2.62;1.62;;;;;;;20.55;100.00;99709.58;1724187;81;21461;-44
2021/07/05 01:03:44;;;;;;;3.87;2.20;;;;;;;20.56;100.00;99707.02;1724438;82;21829;-43
2021/07/05 01:06:10;;;;;;;4.25;2.00;;;;;;;20.55;100.00;99713.16;1724354;82;20974;-49
2021/07/05 01:08:37;;;;;;;2.25;1.52;;;;;;;20.55;100.00;99710.38;1724483;82;21005;-43
2021/07/05 01:11:03;;;;;;;4.53;2.55;;;;;;;20.55;100.00;99716.52;1724373;82;21012;-46
2021/07/05 01:13:30;;;;;;;3.50;1.80;;;;;;;20.56;100.00;99713.36;1724533;82;21464;-49
2021/07/05 01:15:56;;;;;;;4.08;2.40;;;;;;;20.65;100.00;99715.11;1724511;82;21075;-43
2021/07/05 01:18:23;;;;;;;2.70;2.17;;;;;;;20.69;100.00;99719.56;1724608;83;21394;-50
2021/07/05 01:20:49;;;;;;;2.02;1.82;;;;;;;20.73;100.00;99717.67;1724238;83;21027;-50
2021/07/05 01:23:16;;;;;;;1.85;1.70;;;;;;;20.77;100.00;99722.73;1724408;82;21012;-50
2021/07/05 01:25:42;;;;;;;3.10;2.20;;;;;;;20.82;100.00;99728.55;1724292;82;21814;-45
2021/07/05 01:28:09;;;;;;;3.95;2.30;;;;;;;20.85;100.00;99729.22;1724348;82;21023;-50
2021/07/05 01:30:36;;;;;;;2.40;1.77;;;;;;;20.89;100.00;99723.14;1724606;83;21004;-44
2021/07/05 01:33:05;;;;;;;3.70;1.87;;;;;;;20.93;100.00;99717.67;1724425;82;21545;-44
2021/07/05 01:35:32;;;;;;;2.92;1.98;;;;;;;20.95;100.00;99724.46;1724578;82;21047;-44
2021/07/05 01:37:59;;;;;;;3.77;2.27;;;;;;;20.95;100.00;99725.84;1724288;82;21015;-50
2021/07/05 01:40:25;;;;;;;3.15;1.80;;;;;;;20.94;100.00;99725.61;1724627;82;21087;-44
2021/07/05 01:42:56;;;;;;;5.20;2.47;;;;;;;20.92;100.00;99732.14;1701665;83;21084;-50
2021/07/05 01:45:26;;;;;;;5.33;2.27;;;;;;;20.93;100.00;99730.96;1724636;82;21150;-50
2021/07/05 01:47:53;;;;;;;3.20;2.33;;;;;;;20.89;100.00;99728.69;1724521;83;20913;-45
2021/07/05 01:50:21;;;;;;;1.82;1.72;;;;;;;20.87;100.00;99724.11;1724597;83;21142;-49
2021/07/05 01:52:48;;;;;;;3.02;1.87;;;;;;;20.85;100.00;99726.45;1724485;82;21552;-45
2021/07/05 01:55:14;;;;;;;3.75;1.90;;;;;;;20.87;100.00;99724.11;1724673;82;20980;-44
2021/07/05 01:57:41;;;;;;;2.12;1.90;;;;;;;20.87;100.00;99726.06;1724351;82;20972;-44
2021/07/05 02:00:17;;;;;;;5.50;2.22;;;;;;;20.84;100.00;99728.98;1724487;82;21000;-50
2021/07/05 02:02:45;;;;;;;3.15;1.67;;;;;;;20.80;100.00;99725.35;1752862;81;21343;-43
2021/07/05 02:05:15;;;;;;;2.83;2.15;;;;;;;20.77;100.00;99727.45;1720063;82;20995;-50
2021/07/05 02:07:42;;;;;;;3.12;2.12;;;;;;;20.71;100.00;99727.54;1757099;81;20981;-50
2021/07/05 02:10:11;;;;;;;4.00;1.67;;;;;;;20.68;100.00;99731.05;1735921;81;21060;-50
2021/07/05 02:12:40;;;;;;;4.28;3.02;;;;;;;20.63;100.00;99734.13;1757638;81;21037;-44
2021/07/05 02:15:08;;;;;;;2.27;2.08;;;;;;;20.61;100.00;99730.31;1720325;82;21031;-45
2021/07/05 02:17:35;;;;;;;3.25;2.27;;;;;;;20.65;100.00;99725.65;1700878;83;21028;-45
2021/07/05 02:20:08;;;;;;;2.92;1.72;;;;;;;20.64;100.00;99727.39;1700067;83;21053;-50
2021/07/05 02:22:35;;;;;;;5.15;1.98;;;;;;;20.63;100.00;99729.95;1700249;83;21000;-44
2021/07/05 02:25:09;;;;;;;3.80;2.02;;;;;;;20.67;100.00;99730.81;1706235;82;21011;-50
2021/07/05 02:27:37;;;;;;;3.12;1.82;;;;;;;20.68;100.00;99732.44;1700081;84;21862;-44
2021/07/05 02:30:07;;;;;;;2.65;1.65;;;;;;;20.67;100.00;99731.61;1700465;83;21483;-45
2021/07/05 02:32:33;;;;;;;4.37;2.42;;;;;;;20.68;100.00;99733.83;1757108;81;20970;-44
2021/07/05 02:35:00;;;;;;;3.12;2.10;;;;;;;20.71;100.00;99740.03;1766429;79;21001;-50
2021/07/05 02:37:28;;;;;;;2.92;2.25;;;;;;;20.73;100.00;99731.55;1757260;81;20988;-45
2021/07/05 02:39:54;;;;;;;3.95;2.72;;;;;;;20.77;100.00;99729.67;1757413;81;21477;-49
2021/07/05 02:42:20;;;;;;;9.05;2.87;;;;;;;20.82;100.00;99728.55;1757281;81;21000;-49
2021/07/05 02:44:47;;;;;;;3.65;2.37;;;;;;;20.85;100.00;99725.06;1764203;79;21048;-45
2021/07/05 02:47:13;;;;;;;2.87;2.10;;;;;;;20.89;100.00;99724.52;1757206;81;20993;-49
2021/07/05 02:49:40;;;;;;;2.77;2.12;;;;;;;20.94;100.00;99724.22;1757164;81;21569;-50
2021/07/05 02:52:08;;;;;;;4.03;2.08;;;;;;;20.97;100.00;99721.33;1757474;79;20984;-50
2021/07/05 02:54:34;;;;;;;2.77;2.08;;;;;;;20.97;100.00;99720.73;1773559;79;21007;-49
2021/07/05 02:57:01;;;;;;;2.40;1.95;;;;;;;20.98;100.00;99727.89;1774353;80;21043;-44
2021/07/05 02:59:28;;;;;;;4.22;2.33;;;;;;;20.97;100.00;99729.06;1774236;80;21428;-50
2021/07/05 03:01:54;;;;;;;3.52;2.65;;;;;;;20.98;100.00;99738.20;1735513;81;20994;-48
2021/07/05 03:04:20;;;;;;;3.22;2.20;;;;;;;20.94;100.00;99738.11;1743269;80;20991;-50
2021/07/05 03:06:47;;;;;;;4.70;2.33;;;;;;;20.96;100.00;99726.65;1743297;82;21440;-45
2021/07/05 03:09:13;;;;;;;4.78;2.62;;;;;;;20.96;100.00;99725.26;1743637;81;20994;-44
2021/07/05 03:11:40;;;;;;;4.97;2.50;;;;;;;20.97;100.00;99736.02;1741531;80;20925;-50
2021/07/05 03:14:07;;;;;;;4.47;2.65;;;;;;;21.00;100.00;99738.64;1722459;82;21038;-50
2021/07/05 03:16:33;;;;;;;3.85;2.65;;;;;;;21.04;100.00;99743.66;1722547;83;20991;-45
2021/07/05 03:19:00;;;;;;;2.42;2.17;;;;;;;21.12;100.00;99747.41;1722347;83;21071;-44
2021/07/05 03:21:26;;;;;;;3.67;2.52;;;;;;;21.21;100.00;99738.23;1677166;83;21741;-50
2021/07/05 03:23:53;;;;;;;5.08;2.72;;;;;;;21.31;100.00;99728.48;1671456;84;21051;-50
2021/07/05 03:26:19;;;;;;;4.45;2.22;;;;;;;21.39;100.00;99728.85;1669582;85;21017;-44
2021/07/05 03:28:46;;;;;;;3.58;2.30;;;;;;;21.41;100.00;99721.78;1671507;85;21072;-50
2021/07/05 03:31:13;;;;;;;3.65;2.37;;;;;;;21.42;100.00;99721.98;1679400;83;21418;-49
2021/07/05 03:33:39;;;;;;;2.83;2.37;;;;;;;21.44;100.00;99719.64;1671559;85;21040;-45
2021/07/05 03:36:06;;;;;;;2.95;2.08;;;;;;;21.49;100.00;99721.31;1677595;85;21031;-50
2021/07/05 03:38:32;;;;;;;3.72;2.30;;;;;;;21.55;100.00;99716.23;1677937;85;21064;-50
2021/07/05 03:40:59;;;;;;;3.98;2.90;;;;;;;21.62;100.00;99717.75;1675758;83;21030;-49
2021/07/05 03:43:26;;;;;;;5.97;2.58;;;;;;;21.69;100.00;99724.23;1677793;85;21107;-51
2021/07/05 03:45:52;;;;;;;6.47;2.95;;;;;;;21.79;99.93;99717.83;1677457;84;21023;-44
2021/07/05 03:48:18;;;;;;;5.00;3.17;;;;;;;21.89;99.90;99719.38;1696397;84;21048;-45
2021/07/05 03:50:45;;;;;;;3.83;2.60;;;;;;;21.96;98.74;99713.70;1726194;82;21480;-44
2021/07/05 03:53:13;;;;;;;4.33;3.20;;;;;;;22.02;98.06;99709.44;1726158;82;20987;-49
2021/07/05 03:55:40;;;;;;;2.37;2.17;;;;;;;22.07;97.74;99704.94;1722237;83;20991;-46
2021/07/05 03:58:06;;;;;;;5.83;2.83;;;;;;;22.12;97.19;99706.00;1659006;84;21026;-44
2021/07/05 04:00:39;;;;;;;3.15;2.40;;;;;;;22.15;96.53;99703.85;1674097;84;21015;-46
2021/07/05 04:03:06;;;;;;;3.98;2.30;;;;;;;22.17;95.30;99714.02;1719404;82;21456;-50
2021/07/05 04:05:33;;;;;;;2.30;1.95;;;;;;;22.18;95.37;99713.43;1724946;83;21509;-49
2021/07/05 04:08:01;;;;;;;3.02;1.98;;;;;;;22.18;95.25;99705.91;1724043;82;21626;-44
2021/07/05 04:10:28;;;;;;;3.20;2.20;;;;;;;22.21;95.60;99706.57;1724677;82;21545;-44
2021/07/05 04:12:54;;;;;;;3.70;2.85;;;;;;;22.23;94.57;99704.22;1725012;83;21082;-44
2021/07/05 04:15:22;;;;;;;4.08;2.05;;;;;;;22.29;94.13;99711.64;1724967;82;21122;-50
2021/07/05 04:17:49;;;;;;;3.17;2.40;;;;;;;22.32;94.46;99707.50;1691660;83;21064;-50
2021/07/05 04:20:19;;;;;;;4.47;2.15;;;;;;;22.38;94.25;99709.95;1708269;83;21035;-50
2021/07/05 04:22:46;;;;;;;2.87;2.17;;;;;;;22.43;93.89;99706.88;1697808;82;21026;-44
2021/07/05 04:25:14;;;;;;;6.25;2.37;;;;;;;22.47;93.24;99700.14;1732190;82;20945;-46
2021/07/05 04:27:42;;;;;;;5.45;2.30;;;;;;;22.52;93.40;99689.27;1729841;82;21015;-50
2021/07/05 04:30:10;;;;;;;4.25;3.00;;;;;;;22.58;92.89;99685.59;1689713;82;21000;-44
2021/07/05 04:32:37;;;;;;;3.35;2.12;;;;;;;22.64;92.39;99697.38;1764772;81;21367;-50
2021/07/05 04:35:07;;;;;;;4.50;2.00;;;;;;;22.68;92.17;99695.45;1739111;81;21007;-51
2021/07/05 04:37:33;;;;;;;3.52;2.60;;;;;;;22.72;92.34;99695.48;1707523;84;21311;-45
2021/07/05 04:40:02;;;;;;;3.45;2.72;;;;;;;22.75;92.32;99701.10;1704741;84;21041;-45
2021/07/05 04:42:29;;;;;;;5.05;2.65;;;;;;;22.79;92.78;99703.13;1729261;83;21071;-45
2021/07/05 04:44:55;;;;;;;3.98;2.15;;;;;;;22.83;92.51;99703.98;1731652;82;21082;-51
2021/07/05 04:47:22;;;;;;;3.62;2.67;;;;;;;22.86;92.54;99705.39;1737188;82;20982;-45
2021/07/05 04:49:49;;;;;;;3.08;2.47;;;;;;;22.90;92.24;99699.88;1735280;81;21605;-50
2021/07/05 04:52:15;;;;;;;2.92;2.35;;;;;;;23.01;92.63;99700.81;1735398;82;21485;-45
2021/07/05 04:54:41;;;;;;;4.25;2.62;;;;;;;23.11;91.68;99696.54;1735385;82;21006;-51
2021/07/05 04:57:10;;;;;;;4.12;2.25;;;;;;;23.24;90.34;99708.20;1736691;82;21027;-45
2021/07/05 04:59:38;;;;;;;3.40;2.33;;;;;;;23.35;91.20;99702.95;1714184;81;21026;-51
2021/07/05 05:02:05;;;;;;;4.22;2.92;;;;;;;23.48;90.28;99703.45;1714350;83;21010;-46
2021/07/05 05:04:33;;;;;;;3.05;2.75;;;;;;;23.59;89.05;99695.20;1726726;80;20993;-51
2021/07/05 05:06:59;;;;;;;4.67;3.02;;;;;;;23.65;87.80;99702.61;1690899;82;21055;-50
2021/07/05 05:09:25;;;;;;;3.85;2.98;;;;;;;23.68;87.57;99697.05;1710094;83;21669;-44
2021/07/05 05:11:53;;;;;;;3.20;2.30;;;;;;;23.70;87.49;99697.47;1734138;80;21380;-50
2021/07/05 05:14:22;;;;;;;3.95;2.60;;;;;;;23.74;87.94;99694.75;1763479;80;21079;-50
2021/07/05 05:16:50;;;;;;;2.15;1.80;;;;;;;23.81;87.35;99696.17;1747993;79;21042;-50
2021/07/05 05:19:17;;;;;;;4.03;2.60;;;;;;;23.90;86.87;99695.85;1758066;79;21037;-50
2021/07/05 05:21:44;;;;;;;3.62;2.83;;;;;;;23.97;86.53;99695.30;1721333;80;21038;-50
2021/07/05 05:24:12;;;;;;;3.42;2.62;;;;;;;24.02;87.19;99697.73;1768690;80;22156;-49
2021/07/05 05:26:39;;;;;;;3.47;2.72;;;;;;;24.14;87.05;99693.82;1769014;79;20988;-50
2021/07/05 05:29:05;;;;;;;3.90;2.80;;;;;;;24.22;85.81;99700.24;1771989;80;21082;-45
2021/07/05 05:31:35;;;;;;;4.37;2.58;;;;;;;24.28;86.21;99687.50;1774301;79;21599;-50
2021/07/05 05:34:02;;;;;;;3.15;2.72;;;;;;;24.34;86.28;99687.34;1768757;79;21564;-45
2021/07/05 05:36:29;;;;;;;4.67;2.85;;;;;;;24.42;85.05;99691.77;1768412;79;20919;-46
2021/07/05 05:38:55;;;;;;;3.10;2.35;;;;;;;24.44;83.47;99687.98;1771090;80;21492;-50
2021/07/05 05:41:22;;;;;;;3.22;2.77;;;;;;;24.49;84.11;99698.02;1728548;82;21400;-45
2021/07/05 05:43:48;;;;;;;4.55;2.92;;;;;;;24.56;83.89;99695.86;1724427;82;21068;-50
2021/07/05 05:46:15;;;;;;;3.33;2.80;;;;;;;24.62;83.62;99697.06;1766652;80;21018;-50
2021/07/05 05:48:43;;;;;;;4.85;3.17;;;;;;;24.66;83.27;99699.29;1717134;82;21050;-44
2021/07/05 05:51:10;;;;;;;3.15;2.45;;;;;;;24.75;83.43;99704.49;1774065;80;21051;-45
2021/07/05 05:53:37;;;;;;;3.87;2.70;;;;;;;24.79;82.24;99697.73;1713949;82;21597;-44
2021/07/05 05:56:04;;;;;;;5.40;3.12;;;;;;;24.82;83.19;99702.52;1710525;81;21002;-50
2021/07/05 05:58:35;;;;;;;5.65;3.35;;;;;;;24.93;82.30;99696.19;1754204;79;21440;-49
2021/07/05 06:01:00;;;;;;;6.92;3.52;;;;;;;25.01;82.18;99697.80;1773675;79;20959;-51
2021/07/05 06:03:28;;;;;;;3.75;2.77;;;;;;;25.07;81.15;99705.98;1800529;79;21007;-45
2021/07/05 06:05:54;;;;;;;4.55;2.40;;;;;;;25.12;80.40;99705.59;1800432;79;20994;-44
2021/07/05 06:08:22;;;;;;;3.58;2.90;;;;;;;25.19;80.84;99705.64;1800581;79;21003;-45
2021/07/05 06:10:48;;;;;;;5.08;2.98;;;;;;;25.26;80.02;99700.06;1800722;78;21010;-45
2021/07/05 06:13:15;;;;;;;5.75;3.00;;;;;;;25.30;78.74;99700.88;1762804;80;21046;-51
2021/07/05 06:15:41;;;;;;;3.55;2.85;;;;;;;25.31;78.65;99709.45;1737662;82;20998;-46
2021/07/05 06:18:07;;;;;;;4.33;2.58;;;;;;;25.33;78.69;99706.88;1762081;81;20907;-44
2021/07/05 06:20:34;;;;;;;4.17;3.12;;;;;;;25.31;79.44;99703.86;1762370;81;21094;-44
2021/07/05 06:23:00;;;;;;;4.45;2.95;;;;;;;25.33;79.29;99711.07;1762545;81;20996;-46
2021/07/05 06:25:27;;;;;;;4.58;3.08;;;;;;;25.38;78.68;99705.88;1762740;80;20994;-46
2021/07/05 06:27:54;;;;;;;5.12;2.95;;;;;;;25.51;79.82;99706.28;1762646;81;20916;-44
2021/07/05 06:30:20;;;;;;;4.67;3.20;;;;;;;25.66;79.55;99706.48;1738200;82;21479;-45
2021/07/05 06:32:46;;;;;;;4.25;2.62;;;;;;;25.76;77.11;99707.67;1762366;80;21045;-45
2021/07/05 06:35:13;;;;;;;4.67;2.77;;;;;;;25.82;78.17;99701.09;1738421;82;21046;-45
2021/07/05 06:37:40;;;;;;;4.40;2.90;;;;;;;25.93;78.09;99699.09;1737980;82;21089;-44
2021/07/05 06:40:07;;;;;;;3.72;2.55;;;;;;;25.96;77.34;99702.48;1738013;82;21018;-51
2021/07/05 06:42:35;;;;;;;3.85;2.45;;;;;;;26.03;77.11;99704.48;1716787;82;20995;-45
2021/07/05 06:45:06;;;;;;;6.93;2.47;;;;;;;26.13;77.59;99698.85;1763008;81;20983;-51
2021/07/05 06:47:32;;;;;;;4.35;3.10;;;;;;;26.24;78.12;99698.05;1762310;81;21501;-51
2021/07/05 06:49:59;;;;;;;3.40;2.65;;;;;;;26.31;75.55;99693.23;1762680;81;21055;-44
2021/07/05 06:52:27;;;;;;;5.35;2.70;;;;;;;26.38;76.80;99690.41;1762483;81;21003;-45
2021/07/05 06:54:55;;;;;;;5.25;3.10;;;;;;;26.48;75.99;99694.34;1762697;80;20984;-45
2021/07/05 06:57:30;;;;;;;3.50;3.00;;;;;;;26.60;75.08;99688.33;1762345;81;21826;-45
2021/07/05 06:59:58;;;;;;;3.83;2.85;;;;;;;26.69;74.79;99688.51;1738148;82;20995;-46
2021/07/05 07:02:25;;;;;;;3.35;2.58;;;;;;;26.75;74.49;99691.06;1762164;81;21042;-45
2021/07/05 07:04:54;;;;;;;2.27;2.08;;;;;;;26.75;72.38;99689.66;1801113;79;20974;-50
2021/07/05 07:07:20;;;;;;;4.55;2.92;;;;;;;26.70;72.39;99692.28;1752119;81;21034;-46
2021/07/05 07:09:48;;;;;;;3.60;2.30;;;;;;;26.72;71.69;99688.48;1801147;79;21022;-50
2021/07/05 07:12:16;;;;;;;2.75;2.27;;;;;;;26.75;71.99;99699.48;1752263;81;21011;-51
2021/07/05 07:14:42;;;;;;;6.65;2.62;;;;;;;26.76;72.60;99684.27;1752558;81;20992;-46
2021/07/05 07:17:21;;;;;;;3.37;2.58;;;;;;;26.80;73.11;99685.86;1800744;79;21054;-51
2021/07/05 07:19:39;;;;;;;5.65;2.52;;;;;;;26.87;73.01;99688.41;1798920;79;21276;-46
2021/07/05 07:22:05;;;;;;;5.25;2.62;;;;;;;26.89;72.07;99683.98;1752210;81;21031;-45
2021/07/05 07:24:32;;;;;;;3.47;2.60;;;;;;;26.88;72.27;99684.39;1731352;81;21010;-50
2021/07/05 07:27:00;;;;;;;5.25;2.50;;;;;;;26.84;72.38;99687.22;1800732;79;21041;-45
2021/07/05 07:29:27;;;;;;;3.20;2.33;;;;;;;26.86;73.15;99682.02;1801123;79;21026;-51
2021/07/05 07:31:54;;;;;;;3.55;2.65;;;;;;;26.94;73.20;99686.36;1800619;79;21065;-51
2021/07/05 07:34:21;;;;;;;4.60;3.02;;;;;;;27.06;71.39;99682.30;1752598;81;21019;-50
2021/07/05 07:36:49;;;;;;;3.45;2.33;;;;;;;27.11;70.60;99681.06;1800855;79;21061;-46
2021/07/05 07:39:19;;;;;;;3.05;2.67;;;;;;;27.17;71.59;99683.61;1752259;81;21015;-44
2021/07/05 07:41:46;;;;;;;2.40;2.00;;;;;;;27.27;69.62;99686.19;1800772;79;21472;-50
2021/07/05 07:44:13;;;;;;;2.30;2.10;;;;;;;27.29;70.01;99685.97;1800638;79;21021;-45
2021/07/05 07:46:39;;;;;;;5.55;3.27;;;;;;;27.34;70.49;99688.33;1752108;81;21006;-50
2021/07/05 07:49:06;;;;;;;4.47;2.90;;;;;;;27.49;69.76;99684.02;1800866;79;21002;-51
2021/07/05 07:51:33;;;;;;;4.72;3.10;;;;;;;27.64;70.13;99686.89;1752162;81;21062;-46
2021/07/05 07:53:59;;;;;;;4.83;3.00;;;;;;;27.76;68.71;99696.81;1800830;79;21472;-45
2021/07/05 07:56:26;;;;;;;4.78;3.37;;;;;;;27.86;70.41;99693.92;1752176;81;21453;-50
2021/07/05 07:58:53;;;;;;;2.80;2.50;;;;;;;27.98;68.52;99687.00;1800896;79;20987;-49
2021/07/05 08:01:20;;;;;;;2.42;2.15;;;;;;;28.12;67.90;99690.89;1752169;81;20999;-45
2021/07/05 08:03:46;;;;;;;4.40;2.60;;;;;;;28.27;67.72;99693.73;1800503;79;20955;-45
2021/07/05 08:06:13;;;;;;;2.55;2.10;;;;;;;28.39;66.04;99692.38;1800501;79;20926;-45
2021/07/05 08:08:40;;;;;;;3.50;2.40;;;;;;;28.43;64.85;99695.95;1800463;79;21499;-45
2021/07/05 08:11:08;;;;;;;2.95;2.33;;;;;;;28.45;66.32;99700.57;1800579;79;20983;-45
2021/07/05 08:13:34;;;;;;;2.83;1.95;;;;;;;28.55;63.06;99705.27;1800894;79;21376;-45
2021/07/05 08:16:00;;;;;;;3.08;2.20;;;;;;;28.51;62.91;99704.50;1800749;79;21876;-44
2021/07/05 08:18:28;;;;;;;4.75;2.42;;;;;;;28.40;62.73;99696.17;1800900;79;20906;-45
2021/07/05 08:20:55;;;;;;;4.50;2.80;;;;;;;28.36;64.73;99704.45;1800537;78;22002;-45
2021/07/05 08:23:21;;;;;;;3.52;2.30;;;;;;;28.40;65.04;99698.20;1800949;78;20994;-47
2021/07/05 08:25:48;;;;;;;3.30;2.62;;;;;;;28.50;64.48;99704.33;1800633;79;21019;-45
2021/07/05 08:28:15;;;;;;;2.92;2.12;;;;;;;28.59;66.03;99686.97;1800677;79;21034;-50
2021/07/05 08:30:41;;;;;;;4.55;2.75;;;;;;;28.71;65.70;99702.66;1800600;79;20974;-46
2021/07/05 08:33:07;;;;;;;3.10;1.90;;;;;;;28.83;63.70;99690.65;1800827;78;20990;-45
2021/07/05 08:35:34;;;;;;;1.90;1.60;;;;;;;28.89;63.49;99688.97;1740497;81;21046;-50
2021/07/05 08:38:00;;;;;;;4.08;2.45;;;;;;;29.06;64.22;99694.20;1800361;79;20911;-46
2021/07/05 08:40:27;;;;;;;2.30;1.98;;;;;;;29.21;62.63;99684.94;1800504;79;21431;-50
2021/07/05 08:42:54;;;;;;;1.95;1.67;;;;;;;29.23;62.52;99679.66;1762436;81;20983;-46
2021/07/05 08:45:21;;;;;;;3.80;2.40;;;;;;;29.16;62.74;99681.98;1762102;81;20983;-50
2021/07/05 08:47:49;;;;;;;3.10;1.80;;;;;;;29.12;62.12;99680.61;1762048;81;21013;-50
2021/07/05 08:50:16;;;;;;;2.15;1.90;;;;;;;29.03;62.12;99678.94;1762391;81;21595;-50
2021/07/05 08:52:43;;;;;;;3.17;1.98;;;;;;;28.88;60.67;99695.80;1791704;79;21089;-47
2021/07/05 08:55:11;;;;;;;2.90;1.60;;;;;;;28.68;60.73;99682.41;1742850;80;21038;-50
2021/07/05 08:57:38;;;;;;;2.77;2.30;;;;;;;28.57;62.97;99678.95;1762526;79;21614;-45
2021/07/05 09:00:14;;;;;;;2.50;1.92;;;;;;;28.60;60.77;99685.12;1761023;79;20986;-50
2021/07/05 09:02:41;;;;;;;2.22;1.65;;;;;;;28.64;61.27;99682.28;1760434;79;21077;-45
2021/07/05 09:05:08;;;;;;;2.10;1.67;;;;;;;28.61;62.90;99685.33;1769213;79;21519;-51
2021/07/05 09:08:03;;;;;;;2.25;1.90;;;;;;;28.57;63.40;99692.21;1790992;79;21078;-45
2021/07/05 09:10:44;;;;;;;8.68;3.02;;;;;;;28.65;62.14;99691.69;1787160;79;20974;-51
2021/07/05 09:13:20;;;;;;;3.55;2.17;;;;;;;28.90;61.10;99696.17;1682151;82;21043;-50
2021/07/05 09:15:52;;;;;;;2.72;2.22;;;;;;;29.07;60.86;99692.34;1762624;79;20923;-51
2021/07/05 09:18:43;;;;;;;2.25;1.90;;;;;;;29.11;59.42;99701.54;1773741;80;21451;-51
2021/07/05 09:21:19;;;;;;;1.72;1.45;;;;;;;29.11;58.59;99690.28;1773482;80;21035;-45
2021/07/05 09:23:53;;;;;;;3.62;2.00;;;;;;;29.05;59.45;99693.34;1736050;82;21065;-44
2021/07/05 09:26:26;;;;;;;1.67;1.37;;;;;;;29.02;57.79;99690.59;1775018;79;21018;-45
2021/07/05 09:28:53;;;;;;;2.12;1.40;;;;;;;29.05;58.64;99689.13;1757654;80;21011;-51
2021/07/05 09:31:33;;;;;;;1.87;1.57;;;;;;;29.06;57.66;99689.36;1774342;80;20935;-51
2021/07/05 09:34:00;;;;;;;2.15;1.55;;;;;;;28.98;57.76;99690.66;1713454;82;20972;-47
2021/07/05 09:36:26;;;;;;;1.70;1.42;;;;;;;28.91;58.70;99693.57;1707327;83;21006;-44
2021/07/05 09:38:54;;;;;;;3.10;2.12;;;;;;;28.86;58.39;99687.80;1751508;79;21418;-44
2021/07/05 09:41:28;;;;;;;2.90;2.00;;;;;;;28.82;58.04;99696.89;1772346;79;20988;-50
2021/07/05 09:43:59;;;;;;;3.08;2.22;;;;;;;28.73;58.49;99694.61;1706577;82;21072;-50
2021/07/05 09:46:55;;;;;;;3.60;2.25;;;;;;;28.71;60.92;99695.63;1736569;82;21026;-51
2021/07/05 09:49:33;;;;;;;2.08;1.60;;;;;;;28.87;59.37;99698.44;1749673;79;20994;-44
2021/07/05 09:52:16;;;;;;;2.10;1.60;;;;;;;28.87;58.24;99697.03;1799239;79;20975;-51
2021/07/05 09:54:47;;;;;;;2.17;1.95;;;;;;;28.77;59.12;99697.98;1785194;79;21480;-51
2021/07/05 09:57:28;;;;;;;1.22;1.10;;;;;;;28.73;60.93;99700.23;1795758;79;20972;-51
2021/07/05 10:00:07;;;;;;;1.70;1.50;;;;;;;28.89;61.13;99700.22;1768290;79;21573;-51
2021/07/05 10:02:36;;;;;;;2.15;1.80;;;;;;;29.01;57.59;99699.65;1768869;79;21536;-50
2021/07/05 10:05:16;;;;;;;2.52;1.82;;;;;;;28.85;58.68;99700.25;1747482;80;21506;-51
2021/07/05 10:07:43;;;;;;;2.77;1.80;;;;;;;28.67;60.53;99703.30;1712859;82;21109;-52
2021/07/05 10:10:12;;;;;;;4.58;1.90;;;;;;;28.52;59.70;99700.49;1739913;82;21009;-49
2021/07/05 10:12:51;;;;;;;3.08;1.62;;;;;;;28.41;60.13;99696.38;1740619;82;21052;-51
2021/07/05 10:15:18;;;;;;;2.83;2.47;;;;;;;28.33;61.44;99694.85;1721121;82;21420;-51
2021/07/05 10:17:48;;;;;;;2.75;2.02;;;;;;;28.47;63.60;99696.74;1719257;82;21449;-51
2021/07/05 10:20:20;;;;;;;2.08;1.72;;;;;;;28.70;62.96;99702.45;1738437;82;21022;-51
2021/07/05 10:22:48;;;;;;;5.55;2.95;;;;;;;28.83;60.90;99696.27;1739809;81;21017;-45
2021/07/05 10:25:17;;;;;;;2.52;1.87;;;;;;;28.75;60.65;99693.38;1718593;82;21574;-45
2021/07/05 10:27:43;;;;;;;2.45;2.10;;;;;;;28.62;61.70;99695.95;1711090;82;21001;-45
2021/07/05 10:30:12;;;;;;;4.70;2.55;;;;;;;28.50;60.85;99700.11;1727921;82;21037;-45
2021/07/05 10:32:39;;;;;;;2.75;1.95;;;;;;;28.50;62.52;99695.89;1661828;84;21463;-45
2021/07/05 10:35:07;;;;;;;2.25;1.80;;;;;;;28.61;61.36;99683.92;1668494;83;21061;-45
2021/07/05 10:37:53;;;;;;;2.27;1.77;;;;;;;28.72;61.47;99694.41;1674477;84;21022;-51
2021/07/05 10:40:28;;;;;;;2.45;1.72;;;;;;;28.83;61.40;99692.05;1661355;85;21434;-51
2021/07/05 10:42:57;;;;;;;2.55;1.90;;;;;;;29.04;61.24;99687.55;1682055;84;21049;-51
2021/07/05 10:45:42;;;;;;;2.67;1.85;;;;;;;29.31;58.98;99695.22;1681871;85;21179;-45
2021/07/05 10:48:17;;;;;;;3.10;1.85;;;;;;;29.39;56.83;99690.27;1708936;83;21022;-46
2021/07/05 10:50:50;;;;;;;2.87;1.72;;;;;;;29.33;57.58;99684.34;1681813;83;21058;-47
2021/07/05 10:53:45;;;;;;;1.82;1.55;;;;;;;29.31;60.54;99686.16;1690519;84;21152;-45
2021/07/05 10:56:37;;;;;;;1.82;1.42;;;;;;;29.37;59.34;99692.89;1739772;82;21021;-51
2021/07/05 10:59:15;;;;;;;2.72;1.77;;;;;;;29.24;60.18;99690.49;1699870;82;21551;-45
2021/07/05 11:01:43;;;;;;;1.92;1.77;;;;;;;29.05;61.56;99695.37;1708173;82;21038;-51
2021/07/05 11:04:31;;;;;;;1.90;1.60;;;;;;;29.04;60.49;99690.97;1717550;79;21015;-51
2021/07/05 11:07:08;;;;;;;3.75;2.02;;;;;;;29.17;59.45;99689.81;1771654;81;20995;-46
2021/07/05 11:09:38;;;;;;;5.50;2.02;;;;;;;29.23;61.08;99686.69;1793555;79;21018;-46
2021/07/05 11:12:05;;;;;;;3.35;1.98;;;;;;;29.28;60.30;99688.43;1714426;82;21508;-52
2021/07/05 11:14:38;;;;;;;2.50;1.82;;;;;;;29.26;58.86;99680.23;1735861;81;21386;-45
2021/07/05 11:17:20;;;;;;;1.37;1.27;;;;;;;29.27;58.90;99678.38;1708163;82;21061;-46
2021/07/05 11:19:55;;;;;;;1.50;1.40;;;;;;;29.22;57.58;99672.45;1707785;82;20998;-51
2021/07/05 11:22:27;;;;;;;1.75;1.35;;;;;;;29.22;57.58;99672.45;1724998;81;20908;-45
2021/07/05 11:24:57;;;;;;;1.82;1.60;;;;;;;29.31;57.99;99666.47;1709469;82;21687;-51
2021/07/05 11:27:46;;;;;;;1.80;1.70;;;;;;;29.50;58.98;99674.81;1698735;82;21032;-51
2021/07/05 11:30:17;;;;;;;2.17;1.62;;;;;;;29.64;57.92;99664.52;1721777;80;21384;-51
2021/07/05 11:32:47;;;;;;;2.92;2.02;;;;;;;29.80;57.64;99663.27;1750019;80;21393;-47
2021/07/05 11:35:47;;;;;;;1.85;1.65;;;;;;;29.98;56.25;99651.05;1734329;81;21440;-46
2021/07/05 11:38:29;;;;;;;3.20;1.90;;;;;;;30.18;55.03;99662.34;1747350;80;21065;-46
2021/07/05 11:41:14;;;;;;;5.05;1.80;;;;;;;30.37;54.24;99656.56;1793037;79;21010;-45